Time;durP1;ratioP1;P1;durP2;ratioP2;P2;SDS_P1;SDS_P2;PMS_P1;PMS_P2;Temp;Humidity;BMP_temperature;BMP_pressure;BME280_temperature;BME280_humidity;BME280_pressure;Samples;Min_cycle;Max_cycle;Signal;HPM_P1;HPM_P2
2022/04/12 00:01:33;;;;;;;45.22;24.65;;;;;;;8.80;48.00;100547.31;4880185;28;97224;-87
2022/04/12 00:04:02;;;;;;;48.05;23.15;;;;;;;8.75;47.83;100554.41;4882938;28;101634;-87
2022/04/12 00:06:28;;;;;;;44.95;22.67;;;;;;;8.74;48.09;100549.22;4863135;28;100554;-88
2022/04/12 00:08:53;;;;;;;51.88;25.95;;;;;;;8.80;48.25;100560.41;4890684;28;97258;-87
2022/04/12 00:11:19;;;;;;;48.33;25.08;;;;;;;8.62;48.18;100550.38;4867453;28;96952;-87
2022/04/12 00:13:44;;;;;;;57.45;29.48;;;;;;;8.56;48.25;100550.50;4899137;28;97499;-87
2022/04/12 00:16:10;;;;;;;60.92;33.70;;;;;;;8.60;48.94;100560.84;4867793;28;101279;-87
2022/04/12 00:21:20;;;;;;;67.85;34.22;;;;;;;8.67;48.64;100553.75;4885186;28;97059;-87
2022/04/12 00:23:46;;;;;;;66.88;34.17;;;;;;;8.63;48.45;100539.00;4898999;28;98559;-87
2022/04/12 00:26:12;;;;;;;65.47;34.67;;;;;;;8.62;48.73;100555.59;4867762;28;100150;-88
2022/04/12 00:28:40;;;;;;;72.95;36.13;;;;;;;8.52;48.81;100543.59;4904955;28;96662;-87
2022/04/12 00:31:06;;;;;;;56.92;30.15;;;;;;;8.52;48.73;100540.97;4894255;28;97928;-87
2022/04/12 00:33:32;;;;;;;58.35;30.92;;;;;;;8.15;49.38;100505.16;4882829;28;101835;-88
2022/04/12 00:36:00;;;;;;;60.47;31.23;;;;;;;8.40;49.04;100555.19;4880132;28;101530;-87
2022/04/12 00:38:27;;;;;;;60.38;30.13;;;;;;;8.46;48.83;100557.66;4883617;28;96781;-88
2022/04/12 00:40:54;;;;;;;60.20;31.27;;;;;;;8.32;48.92;100526.56;4905284;28;97484;-87
2022/04/12 00:43:21;;;;;;;62.08;29.80;;;;;;;8.50;49.17;100559.34;4883505;28;101024;-90
2022/04/12 00:45:47;;;;;;;64.50;31.92;;;;;;;8.35;48.86;100538.72;4867477;28;101772;-87
2022/04/12 00:48:13;;;;;;;61.80;30.25;;;;;;;8.44;49.06;100556.88;4899211;28;96744;-88
2022/04/12 00:50:40;;;;;;;54.72;27.42;;;;;;;8.44;49.12;100571.72;4899263;28;97539;-87
2022/04/12 00:53:07;;;;;;;52.25;27.40;;;;;;;8.42;49.18;100566.50;4892585;28;100265;-87
2022/04/12 00:55:34;;;;;;;58.25;27.75;;;;;;;8.32;49.51;100567.53;4881494;28;101614;-87
2022/04/12 00:58:06;;;;;;;47.63;25.88;;;;;;;8.32;49.25;100567.53;4883329;28;96726;-88
2022/04/12 01:00:32;;;;;;;;;;;;;;;8.19;49.50;100581.78;4884090;28;97059;-87
2022/04/12 01:02:57;;;;;;;48.38;23.45;;;;;;;7.96;49.61;100575.22;4899156;28;98459;-87
2022/04/12 01:05:23;;;;;;;44.45;24.20;;;;;;;8.11;49.87;100579.28;4867040;28;101871;-88
2022/04/12 01:07:48;;;;;;;48.72;25.42;;;;;;;8.16;49.35;100580.06;4896301;28;97033;-88
2022/04/12 01:10:15;;;;;;;42.95;24.75;;;;;;;8.08;49.58;100567.13;4867305;28;97077;-88
2022/04/12 01:12:44;;;;;;;47.47;26.02;;;;;;;7.79;50.49;100572.94;4891827;28;99102;-87
2022/04/12 01:15:18;;;;;;;51.60;26.15;;;;;;;7.47;51.29;100568.28;4864271;28;100930;-87
2022/04/12 01:17:45;;;;;;;44.63;23.88;;;;;;;7.50;50.84;100549.94;4866559;28;97543;-88
2022/04/12 01:20:15;;;;;;;45.58;23.83;;;;;;;7.84;50.88;100571.09;4898985;28;96782;-87
2022/04/12 01:23:06;;;;;;;49.47;24.48;;;;;;;7.92;50.11;100569.22;4898317;28;101245;-87
2022/04/12 01:25:32;;;;;;;50.33;25.90;;;;;;;7.94;50.35;100577.88;4866713;28;100459;-87
2022/04/12 01:27:58;;;;;;;46.75;24.88;;;;;;;7.97;50.29;100571.75;4883008;28;97002;-88
2022/04/12 01:30:24;;;;;;;47.78;24.65;;;;;;;7.92;50.09;100577.06;4883280;28;96784;-89
2022/04/12 01:32:49;;;;;;;51.97;24.35;;;;;;;7.86;49.84;100573.69;4882436;28;101284;-87
2022/04/12 01:35:15;;;;;;;50.05;25.55;;;;;;;7.86;49.98;100577.16;4869859;28;100946;-87
2022/04/12 01:37:40;;;;;;;46.03;25.88;;;;;;;7.81;50.06;100583.38;4882055;28;97110;-88
2022/04/12 01:40:06;;;;;;;48.08;25.45;;;;;;;7.75;50.21;100583.47;4885112;28;97653;-87
2022/04/12 01:42:32;;;;;;;48.92;25.30;;;;;;;7.74;49.95;100581.75;4862971;28;101765;-87
2022/04/12 01:44:58;;;;;;;46.03;24.40;;;;;;;7.70;50.27;100589.63;4871042;28;100948;-87
2022/04/12 01:47:23;;;;;;;56.85;25.02;;;;;;;7.63;50.27;100571.50;4866425;28;96613;-89
2022/04/12 01:49:49;;;;;;;54.97;25.33;;;;;;;7.75;50.08;100586.09;4847809;28;96858;-87
2022/04/12 01:52:15;;;;;;;51.53;25.55;;;;;;;7.69;50.02;100579.22;4881571;28;97717;-88
2022/04/12 01:54:41;;;;;;;53.67;26.15;;;;;;;7.77;50.10;100593.03;4866604;28;101481;-88
2022/04/12 01:57:06;;;;;;;47.42;24.83;;;;;;;7.77;50.40;100594.78;4886187;28;96642;-87
2022/04/12 01:59:32;;;;;;;57.92;26.83;;;;;;;7.68;50.37;100580.97;4881840;28;97303;-87
2022/04/12 02:01:58;;;;;;;53.15;25.77;;;;;;;7.60;50.14;100564.56;4881821;28;100138;-87
2022/04/12 02:04:24;;;;;;;55.93;26.53;;;;;;;7.71;50.20;100585.31;4878883;28;101518;-90
2022/04/12 02:06:49;;;;;;;51.10;26.40;;;;;;;7.65;50.53;100586.28;4885256;28;97371;-87
2022/04/12 02:09:15;;;;;;;51.75;26.67;;;;;;;7.56;50.41;100590.78;4882190;28;97054;-87
2022/04/12 02:11:40;;;;;;;48.75;25.23;;;;;;;7.42;50.64;100578.81;4878528;28;101523;-88
2022/04/12 02:14:07;;;;;;;54.03;26.03;;;;;;;7.46;50.50;100588.31;4881780;28;97508;-88
2022/04/12 02:16:34;;;;;;;56.22;25.90;;;;;;;7.43;50.86;100577.94;4881979;28;96988;-88
2022/04/12 02:19:00;;;;;;;51.03;26.45;;;;;;;7.49;50.35;100576.97;4881912;28;97214;-87
2022/04/12 02:21:25;;;;;;;52.90;26.00;;;;;;;7.52;50.31;100578.66;4882294;28;101192;-89
2022/04/12 02:23:51;;;;;;;54.78;27.25;;;;;;;7.49;50.61;100587.41;4881951;28;101643;-88
2022/04/12 02:26:16;;;;;;;51.17;25.37;;;;;;;7.42;50.60;100578.81;4901116;28;96959;-88
2022/04/12 02:28:42;;;;;;;54.75;26.08;;;;;;;7.27;50.90;100581.66;4866127;28;96921;-88
2022/04/12 02:31:07;;;;;;;59.05;28.33;;;;;;;7.25;50.98;100580.84;4882809;28;97574;-88
2022/04/12 02:33:33;;;;;;;55.78;28.25;;;;;;;6.95;51.69;100567.41;4881757;28;100984;-88
2022/04/12 02:35:59;;;;;;;55.50;28.45;;;;;;;6.84;52.22;100590.19;4884245;28;96905;-88
2022/04/12 02:38:24;;;;;;;60.25;29.23;;;;;;;6.74;52.07;100588.56;4870060;28;97198;-88
2022/04/12 02:40:50;;;;;;;58.40;29.38;;;;;;;6.82;52.36;100589.34;4870962;28;102086;-89
2022/04/12 02:43:15;;;;;;;56.78;27.17;;;;;;;6.88;51.97;100588.38;4893782;28;97440;-87
2022/04/12 02:45:41;;;;;;;51.10;25.25;;;;;;;6.99;51.79;100584.72;4869329;28;96962;-86
2022/04/12 02:48:08;;;;;;;61.88;28.02;;;;;;;7.12;51.09;100588.00;4866117;28;96973;-87
2022/04/12 02:50:34;;;;;;;53.00;28.45;;;;;;;7.07;51.47;100578.50;4870284;28;97728;-88
2022/04/12 02:53:00;;;;;;;61.90;30.08;;;;;;;7.17;50.98;100580.09;4869110;28;100959;-88
2022/04/12 02:55:25;;;;;;;62.80;27.73;;;;;;;7.12;51.39;100576.69;4885423;28;97265;-88
2022/04/12 02:57:51;;;;;;;54.33;28.45;;;;;;;7.17;51.04;100596.63;4900968;28;97198;-88
2022/04/12 03:00:17;;;;;;;59.88;28.98;;;;;;;7.18;51.01;100593.13;4880481;28;101200;-88
2022/04/12 03:02:43;;;;;;;61.37;29.27;;;;;;;7.16;50.92;100592.31;4881580;28;100065;-88
2022/04/12 03:05:10;;;;;;;62.03;30.50;;;;;;;6.86;51.52;100566.66;4878854;28;96693;-87
2022/04/12 03:07:35;;;;;;;60.95;28.08;;;;;;;6.88;51.77;100591.84;4898594;28;96897;-88
2022/04/12 03:10:02;;;;;;;53.97;28.07;;;;;;;7.01;51.51;100597.75;4868932;28;101521;-88
2022/04/12 03:12:27;;;;;;;60.80;28.33;;;;;;;6.99;51.46;100591.72;4884950;28;97649;-89
2022/04/12 03:14:53;;;;;;;58.13;30.13;;;;;;;6.91;51.16;100564.84;4884488;28;96755;-88
2022/04/12 03:17:20;;;;;;;61.97;31.67;;;;;;;6.84;51.58;100553.66;4868621;28;96875;-87
2022/04/12 03:19:46;;;;;;;62.15;30.67;;;;;;;6.92;51.85;100579.63;4884676;28;98554;-87
2022/04/12 03:22:12;;;;;;;65.00;31.00;;;;;;;6.92;51.63;100580.50;4866962;28;101293;-89
2022/04/12 03:24:38;;;;;;;64.05;33.25;;;;;;;6.90;51.50;100578.78;4855186;28;97088;-88
2022/04/12 03:27:05;;;;;;;81.47;34.07;;;;;;;6.96;51.58;100583.91;4879647;28;96858;-88
2022/04/12 03:29:30;;;;;;;69.93;32.35;;;;;;;6.94;51.66;100594.38;4900283;28;100638;-89
2022/04/12 03:31:56;;;;;;;72.10;33.70;;;;;;;6.91;51.69;100594.41;4889135;28;99114;-88
2022/04/12 03:34:22;;;;;;;68.80;34.17;;;;;;;6.75;51.92;100588.56;4887493;28;96733;-88
2022/04/12 03:36:47;;;;;;;68.53;34.00;;;;;;;6.78;52.03;100587.66;4900976;28;96752;-88
2022/04/12 03:39:17;;;;;;;66.60;32.67;;;;;;;6.60;51.95;100556.59;4868759;28;101111;-88
2022/04/12 03:41:47;;;;;;;69.80;33.30;;;;;;;6.66;52.04;100565.22;4865688;28;102054;-88
2022/04/12 03:44:14;;;;;;;66.07;33.05;;;;;;;6.79;51.64;100590.25;4883742;28;97005;-87
2022/04/12 03:46:39;;;;;;;71.60;34.97;;;;;;;6.74;52.22;100591.19;4868610;28;96859;-88
2022/04/12 03:49:05;;;;;;;71.77;36.37;;;;;;;6.74;51.88;100594.66;4868328;28;101483;-88
2022/04/12 03:51:31;;;;;;;68.03;32.93;;;;;;;6.78;51.86;100600.72;4884084;28;100558;-91
2022/04/12 03:53:57;;;;;;;62.50;31.77;;;;;;;6.61;52.42;100593.13;4886751;28;96817;-87
2022/04/12 03:56:22;;;;;;;68.73;33.07;;;;;;;6.66;52.36;100604.34;4868087;28;96982;-88
2022/04/12 03:58:48;;;;;;;66.40;32.83;;;;;;;6.50;52.58;100587.16;4880652;28;101903;-88
2022/04/12 04:01:14;;;;;;;68.33;32.83;;;;;;;6.60;52.39;100611.38;4909603;28;98037;-88
2022/04/12 04:03:40;;;;;;;67.67;33.17;;;;;;;6.53;52.63;100611.47;4885175;28;96760;-88
2022/04/12 04:06:05;;;;;;;63.47;33.27;;;;;;;6.19;53.06;100610.13;4884246;28;97098;-87
2022/04/12 04:08:31;;;;;;;65.28;31.80;;;;;;;6.35;53.30;100622.97;4883904;28;97571;-90
2022/04/12 04:10:57;;;;;;;78.23;34.43;;;;;;;6.40;52.56;100619.44;4883988;28;97618;-87
2022/04/12 04:13:24;;;;;;;70.57;36.00;;;;;;;6.30;52.56;100582.19;4884513;28;97064;-89
2022/04/12 04:15:50;;;;;;;76.07;36.53;;;;;;;6.43;52.44;100595.94;4868633;28;97058;-87
2022/04/12 04:18:16;;;;;;;75.77;36.50;;;;;;;6.54;52.77;100620.13;4883753;28;97948;-88
2022/04/12 04:20:42;;;;;;;75.03;34.90;;;;;;;6.46;52.74;100611.56;4881025;28;101383;-88
2022/04/12 04:23:08;;;;;;;77.10;35.23;;;;;;;6.46;52.82;100635.91;4885295;28;96843;-89
2022/04/12 04:25:34;;;;;;;71.53;35.40;;;;;;;6.41;52.87;100616.84;4893793;28;97299;-89
2022/04/12 04:28:00;;;;;;;69.13;33.23;;;;;;;6.44;53.05;100623.75;4863971;28;102249;-89
2022/04/12 04:30:26;;;;;;;74.10;34.60;;;;;;;6.49;52.95;100633.25;4862892;28;101320;-89
2022/04/12 04:32:51;;;;;;;72.83;34.97;;;;;;;6.50;52.73;100639.34;4864974;28;96606;-88
2022/04/12 04:35:17;;;;;;;70.67;33.87;;;;;;;6.47;53.19;100641.97;4859351;28;96871;-89
2022/04/12 04:37:47;;;;;;;67.07;34.60;;;;;;;6.38;53.33;100632.53;4889649;28;97704;-89
2022/04/12 04:40:17;;;;;;;73.87;34.40;;;;;;;6.36;53.42;100631.66;4886510;28;101444;-90
2022/04/12 04:42:44;;;;;;;67.07;34.30;;;;;;;6.40;53.70;100635.97;4887986;28;97137;-89
2022/04/12 04:45:14;;;;;;;70.60;35.90;;;;;;;6.23;54.13;100619.66;4891689;28;97045;-88
2022/04/12 04:47:57;;;;;;;73.10;35.70;;;;;;;6.31;54.08;100629.13;4867049;28;101217;-88
2022/04/12 04:50:25;;;;;;;67.90;33.53;;;;;;;6.35;54.71;100636.03;4883351;28;101726;-88
2022/04/12 04:52:51;;;;;;;62.20;32.50;;;;;;;6.46;54.76;100650.69;4882959;28;96898;-88
2022/04/12 04:55:17;;;;;;;71.83;35.00;;;;;;;6.44;54.38;100644.63;4872620;28;97087;-89
2022/04/12 04:57:43;;;;;;;81.30;37.47;;;;;;;6.47;54.38;100650.66;4866574;28;100830;-89
2022/04/12 05:00:17;;;;;;;75.97;36.20;;;;;;;6.03;55.26;100636.38;4897100;28;101530;-89
2022/04/12 05:02:47;;;;;;;76.50;38.27;;;;;;;6.35;55.34;100658.63;4871704;28;96899;-88
2022/04/12 05:05:13;;;;;;;81.53;38.93;;;;;;;6.56;54.28;100637.50;4883322;28;97499;-88
2022/04/12 05:07:40;;;;;;;79.70;39.60;;;;;;;6.70;54.34;100628.66;4882039;28;101810;-88
2022/04/12 05:10:07;;;;;;;77.60;40.07;;;;;;;6.86;54.07;100622.31;4857127;28;101243;-88
2022/04/12 05:12:32;;;;;;;82.70;41.07;;;;;;;7.19;53.63;100647.09;4867275;28;96587;-89
2022/04/12 05:14:58;;;;;;;98.53;43.87;;;;;;;7.07;53.60;100655.09;4889345;28;97131;-88
2022/04/12 05:17:25;;;;;;;75.57;39.00;;;;;;;7.17;53.68;100646.25;4881905;28;98393;-88
2022/04/12 05:19:51;;;;;;;76.50;39.03;;;;;;;7.15;52.96;100621.03;4882116;28;100412;-88
2022/04/12 05:22:17;;;;;;;73.68;39.22;;;;;;;7.46;52.64;100652.78;4869600;28;96851;-92
2022/04/12 05:24:43;;;;;;;76.40;36.53;;;;;;;7.60;52.17;100658.63;4885412;28;97264;-92
2022/04/12 05:27:09;;;;;;;60.67;32.70;;;;;;;7.75;51.41;100659.28;4866513;28;100319;-91
2022/04/12 05:29:34;;;;;;;67.45;34.20;;;;;;;7.41;51.75;100652.81;4884732;28;102041;-89
2022/04/12 05:32:00;;;;;;;63.67;31.75;;;;;;;7.55;51.97;100667.44;4865675;28;96713;-86
2022/04/12 05:34:26;;;;;;;71.05;32.42;;;;;;;7.65;51.69;100671.59;4866953;28;97217;-91
2022/04/12 05:36:51;;;;;;;60.08;30.30;;;;;;;7.85;51.28;100661.72;4888979;28;100591;-88
2022/04/12 05:39:17;;;;;;;66.20;31.87;;;;;;;8.04;50.25;100666.59;4866590;28;101351;-91
2022/04/12 05:41:42;;;;;;;63.90;30.47;;;;;;;8.01;50.63;100656.19;4879199;28;97301;-92
2022/04/12 05:44:08;;;;;;;61.58;29.65;;;;;;;8.17;50.62;100673.31;4859461;28;97362;-91
2022/04/12 05:46:33;;;;;;;66.22;30.45;;;;;;;8.41;50.55;100676.38;4898887;28;98380;-84
2022/04/12 05:48:59;;;;;;;67.10;29.40;;;;;;;8.62;49.46;100678.59;4894755;28;101265;-86
2022/04/12 05:51:25;;;;;;;60.58;27.02;;;;;;;8.92;48.85;100674.47;4876024;28;96856;-89
2022/04/12 05:53:50;;;;;;;58.13;26.90;;;;;;;9.16;48.65;100680.94;4897240;28;96807;-89
2022/04/12 05:56:16;;;;;;;58.20;27.23;;;;;;;9.46;47.98;100678.50;4879527;28;99906;-89
2022/04/12 05:58:42;;;;;;;46.97;24.33;;;;;;;9.81;47.43;100682.88;4888901;28;98407;-89
2022/04/12 06:01:08;;;;;;;49.33;24.30;;;;;;;10.19;46.21;100686.28;4883164;28;96905;-87
2022/04/12 06:03:33;;;;;;;47.55;23.67;;;;;;;10.27;45.72;100680.84;4879372;28;97189;-87
2022/04/12 06:05:59;;;;;;;55.55;24.08;;;;;;;10.26;45.77;100689.59;4864769;28;101150;-87
2022/04/12 06:08:24;;;;;;;46.03;23.13;;;;;;;10.32;45.58;100666.69;4870873;28;101304;-88
2022/04/12 06:10:50;;;;;;;50.88;25.45;;;;;;;10.63;45.18;100653.56;4854710;28;97056;-89
2022/04/12 06:13:15;;;;;;;55.03;25.67;;;;;;;11.07;44.17;100685.53;4883269;28;96988;-89
2022/04/12 06:15:41;;;;;;;59.10;25.88;;;;;;;11.15;44.07;100693.19;4882256;28;101624;-89
2022/04/12 06:18:07;;;;;;;50.97;25.00;;;;;;;11.17;44.29;100675.63;4867549;28;100805;-88
2022/04/12 06:20:33;;;;;;;43.90;22.42;;;;;;;11.41;43.59;100675.75;4885880;28;96790;-89
2022/04/12 06:22:58;;;;;;;45.70;21.40;;;;;;;11.96;43.03;100695.88;4898070;28;96943;-88
2022/04/12 06:25:24;;;;;;;45.78;21.20;;;;;;;12.39;41.99;100699.66;4897291;28;97408;-88
2022/04/12 06:27:50;;;;;;;35.63;19.10;;;;;;;12.57;41.31;100706.03;4869874;28;100393;-88
2022/04/12 06:30:27;;;;;;;28.70;15.73;;;;;;;12.81;39.43;100695.50;4882189;28;97184;-91
2022/04/12 06:32:53;;;;;;;30.88;16.20;;;;;;;12.89;39.60;100707.47;4866722;28;96794;-86
2022/04/12 06:35:19;;;;;;;31.55;15.93;;;;;;;13.08;39.54;100693.59;4872037;28;100382;-90
2022/04/12 06:37:47;;;;;;;30.13;15.35;;;;;;;13.33;39.00;100712.84;4861303;28;100379;-89
2022/04/12 06:40:15;;;;;;;32.97;15.57;;;;;;;13.51;38.70;100682.25;4878999;28;97302;-88
2022/04/12 06:42:41;;;;;;;36.13;14.85;;;;;;;14.21;37.94;100701.34;4881585;28;97610;-88
2022/04/12 06:45:08;;;;;;;27.83;14.15;;;;;;;14.61;36.28;100707.56;4868604;28;101991;-88
2022/04/12 06:47:33;;;;;;;26.85;14.23;;;;;;;14.24;36.80;100674.81;4886196;28;98397;-88
2022/04/12 06:49:59;;;;;;;34.50;14.60;;;;;;;14.60;36.81;100708.47;4863121;28;96801;-88
2022/04/12 06:52:25;;;;;;;26.58;13.65;;;;;;;14.86;36.35;100689.66;4898059;28;96937;-87
2022/04/12 06:54:51;;;;;;;26.20;13.65;;;;;;;15.50;35.81;100719.28;4901951;28;101372;-87
2022/04/12 06:57:17;;;;;;;29.02;14.93;;;;;;;15.89;34.48;100710.38;4897118;28;98422;-87
2022/04/12 06:59:43;;;;;;;22.73;14.65;;;;;;;16.02;34.29;100691.13;4866860;28;96770;-87
2022/04/12 07:02:09;;;;;;;26.25;14.05;;;;;;;16.58;33.93;100715.66;4898557;28;97360;-84
2022/04/12 07:04:35;;;;;;;23.88;13.77;;;;;;;16.91;33.31;100718.31;4867588;28;102097;-85
2022/04/12 07:07:01;;;;;;;24.42;13.18;;;;;;;17.17;32.35;100713.38;4881136;28;101372;-83
2022/04/12 07:09:28;;;;;;;22.10;12.73;;;;;;;17.59;32.17;100678.25;4865747;28;97479;-85
2022/04/12 07:11:55;;;;;;;21.55;12.85;;;;;;;18.33;30.67;100706.69;4884848;28;96836;-84
2022/04/12 07:14:21;;;;;;;19.60;11.93;;;;;;;18.40;30.70;100701.84;4865564;28;101292;-85
2022/04/12 07:16:47;;;;;;;20.23;11.43;;;;;;;18.73;30.59;100714.94;4887682;28;98396;-86
2022/04/12 07:19:13;;;;;;;16.80;10.63;;;;;;;19.04;29.48;100690.84;4865572;28;96851;-84
2022/04/12 07:21:39;;;;;;;16.50;9.55;;;;;;;19.57;29.60;100716.66;4880833;28;97225;-83
2022/04/12 07:24:06;;;;;;;14.75;8.95;;;;;;;19.62;28.38;100679.94;4864167;28;101746;-81
2022/04/12 07:26:32;;;;;;;15.25;8.05;;;;;;;19.97;28.39;100718.56;4864753;28;102066;-82
2022/04/12 07:28:58;;;;;;;18.30;9.07;;;;;;;20.12;27.44;100706.84;4876774;28;97657;-80
2022/04/12 07:31:24;;;;;;;14.50;9.20;;;;;;;20.16;27.09;100705.69;4880583;28;97335;-80
2022/04/12 07:33:50;;;;;;;19.20;9.10;;;;;;;20.20;27.57;100693.00;4877988;28;97926;-79
2022/04/12 07:36:15;;;;;;;14.30;8.30;;;;;;;19.79;27.96;100662.88;4912349;28;98037;-78
2022/04/12 07:38:41;;;;;;;14.52;8.48;;;;;;;20.30;27.90;100697.63;4895952;28;97539;-84
2022/04/12 07:41:08;;;;;;;12.13;7.97;;;;;;;20.58;27.15;100725.06;4880373;28;97001;-78
2022/04/12 07:43:34;;;;;;;15.65;8.13;;;;;;;20.78;27.25;100716.50;4881900;28;102037;-77
2022/04/12 07:45:59;;;;;;;14.38;8.60;;;;;;;21.37;26.74;100718.56;4897944;28;98368;-77
2022/04/12 07:48:25;;;;;;;14.52;8.55;;;;;;;21.37;25.52;100697.19;4882119;28;97201;-77
2022/04/12 07:50:51;;;;;;;15.88;8.88;;;;;;;21.40;25.95;100709.47;4877150;28;97570;-76
2022/04/12 07:53:16;;;;;;;13.25;7.78;;;;;;;21.53;25.95;100717.44;4857423;28;101365;-77
2022/04/12 07:55:42;;;;;;;14.32;8.02;;;;;;;21.41;25.93;100704.03;4863563;28;101385;-76
2022/04/12 07:58:07;;;;;;;13.27;7.95;;;;;;;21.48;26.28;100704.41;4866955;28;96890;-76
2022/04/12 08:00:33;;;;;;;10.55;7.75;;;;;;;21.91;25.37;100710.09;4878290;28;96991;-76
2022/04/12 08:02:58;;;;;;;13.70;8.43;;;;;;;22.00;24.84;100707.69;4886704;28;97693;-76
2022/04/12 08:05:24;;;;;;;13.30;7.88;;;;;;;22.03;25.16;100718.16;4862813;28;101522;-77
2022/04/12 08:07:49;;;;;;;13.27;7.88;;;;;;;22.37;25.22;100711.13;4878804;28;96793;-76
2022/04/12 08:10:19;;;;;;;13.13;7.63;;;;;;;22.84;24.19;100714.56;4864599;28;96961;-76
2022/04/12 08:12:45;;;;;;;13.18;7.97;;;;;;;22.68;24.43;100709.56;4882084;28;97522;-81
2022/04/12 08:15:11;;;;;;;13.55;7.72;;;;;;;23.05;23.85;100704.00;4864989;28;100982;-75
2022/04/12 08:17:38;;;;;;;10.77;6.95;;;;;;;23.26;23.92;100706.75;4886664;28;96818;-75
2022/04/12 08:20:05;;;;;;;12.68;6.88;;;;;;;23.26;23.06;100712.94;4897105;28;96758;-76
2022/04/12 08:22:32;;;;;;;9.95;6.45;;;;;;;23.34;22.90;100717.69;4863139;28;101291;-75
2022/04/12 08:24:58;;;;;;;10.35;5.20;;;;;;;22.95;23.34;100714.59;4895592;28;98441;-76
2022/04/12 08:27:25;;;;;;;7.18;4.93;;;;;;;23.04;22.02;100727.25;4882523;28;96807;-75
2022/04/12 08:29:50;;;;;;;9.57;4.60;;;;;;;22.95;22.77;100719.94;4881511;28;96929;-76
2022/04/12 08:32:17;;;;;;;8.63;5.13;;;;;;;22.94;22.88;100695.94;4896792;28;97697;-76
2022/04/12 08:34:43;;;;;;;9.57;4.60;;;;;;;23.43;22.80;100700.88;4871716;28;101114;-75
2022/04/12 08:37:09;;;;;;;5.82;4.05;;;;;;;23.58;22.37;100714.81;4878461;28;97359;-78
2022/04/12 08:39:35;;;;;;;7.80;4.10;;;;;;;24.07;21.55;100709.91;4882032;28;97483;-75
2022/04/12 08:42:03;;;;;;;7.18;4.38;;;;;;;23.70;21.90;100713.00;4891466;28;97531;-75
2022/04/12 08:44:30;;;;;;;5.45;3.90;;;;;;;24.01;21.81;100710.44;4897476;28;97390;-75
2022/04/12 08:46:56;;;;;;;7.43;3.78;;;;;;;24.20;21.04;100707.88;4881752;28;96694;-74
2022/04/12 08:49:26;;;;;;;6.30;3.78;;;;;;;24.00;21.01;100700.69;4881426;28;97550;-75
2022/04/12 08:51:52;;;;;;;5.37;3.57;;;;;;;23.53;21.89;100692.91;4865180;28;101471;-75
2022/04/12 08:54:18;;;;;;;4.32;3.17;;;;;;;24.07;21.26;100707.25;4880723;28;101953;-74
2022/04/12 08:56:48;;;;;;;6.95;4.10;;;;;;;24.51;21.08;100699.94;4883724;28;97058;-74
2022/04/12 08:59:13;;;;;;;6.22;4.18;;;;;;;24.68;21.06;100698.47;4881214;28;97027;-75
2022/04/12 09:01:41;;;;;;;9.63;3.83;;;;;;;24.65;20.83;100683.47;4865421;28;101337;-81
2022/04/12 09:04:07;;;;;;;6.32;3.72;;;;;;;24.96;20.55;100702.22;4864854;28;100955;-81
2022/04/12 09:06:33;;;;;;;7.78;3.83;;;;;;;24.37;20.58;100696.56;4881576;28;96722;-81
2022/04/12 09:09:12;;;;;;;6.13;4.00;;;;;;;24.93;20.52;100699.81;4864321;28;96914;-80
2022/04/12 09:11:42;;;;;;;8.88;3.63;;;;;;;25.37;20.17;100687.00;4872029;28;101871;-79
2022/04/12 09:14:12;;;;;;;4.72;3.63;;;;;;;25.72;20.08;100675.69;4895510;28;101227;-84
2022/04/12 09:16:44;;;;;;;6.90;4.25;;;;;;;24.94;20.40;100686.28;4881994;28;96825;-85
2022/04/12 09:19:10;;;;;;;6.82;3.97;;;;;;;24.59;20.29;100692.91;4878849;28;97002;-87
2022/04/12 09:21:44;;;;;;;7.45;4.18;;;;;;;24.30;20.84;100689.19;4879135;28;98620;-83
2022/04/12 09:24:19;;;;;;;4.47;3.20;;;;;;;24.79;21.00;100693.84;4863423;28;101496;-84
2022/04/12 09:26:54;;;;;;;7.05;3.92;;;;;;;25.27;20.43;100703.06;4861536;28;97241;-86
2022/04/12 09:29:26;;;;;;;5.97;3.60;;;;;;;24.99;19.75;100691.25;4876051;28;96714;-87
2022/04/12 09:31:55;;;;;;;4.45;2.97;;;;;;;24.67;20.58;100692.25;4864812;28;100041;-92
2022/04/12 09:34:21;;;;;;;4.35;3.03;;;;;;;24.72;20.17;100706.09;4874898;28;98751;-93
2022/04/12 09:36:47;;;;;;;5.65;3.28;;;;;;;24.18;20.64;100672.31;4862938;28;96818;-90
2022/04/12 09:39:16;;;;;;;5.13;3.42;;;;;;;24.18;20.44;100691.09;4881368;28;97141;-92
2022/04/12 09:41:41;;;;;;;4.57;3.17;;;;;;;23.31;21.08;100655.50;4868118;28;101787;-92
2022/04/12 09:44:08;;;;;;;5.50;3.90;;;;;;;23.11;21.45;100636.56;4878662;28;100158;-91
2022/04/12 09:46:37;;;;;;;7.13;3.53;;;;;;;23.02;21.39;100635.47;4880859;28;96735;-91
2022/04/12 09:49:12;;;;;;;4.78;3.92;;;;;;;22.86;21.49;100632.31;4879020;28;96795;-90
2022/04/12 09:51:38;;;;;;;4.93;3.55;;;;;;;23.03;21.73;100669.28;4872585;28;101734;-89
2022/04/12 09:54:06;;;;;;;6.00;3.40;;;;;;;23.35;21.67;100622.13;4881425;28;100700;-90
2022/04/12 09:56:36;;;;;;;4.95;3.47;;;;;;;23.36;21.27;100627.38;4880640;28;96710;-90
2022/04/12 09:59:08;;;;;;;4.72;3.42;;;;;;;23.80;20.92;100663.03;4861244;28;96753;-91
2022/04/12 10:01:39;;;;;;;5.00;3.50;;;;;;;22.72;21.85;100657.50;4881029;28;101590;-90
2022/04/12 10:04:10;;;;;;;5.03;3.55;;;;;;;22.60;22.03;100654.00;4892762;28;101031;-90
2022/04/12 10:06:43;;;;;;;6.53;3.60;;;;;;;22.53;22.16;100619.81;4877506;28;96853;-92
2022/04/12 10:09:20;;;;;;;7.07;3.83;;;;;;;22.72;21.89;100633.44;4881537;28;97184;-91
2022/04/12 10:11:48;;;;;;;7.70;3.50;;;;;;;22.22;22.47;100635.59;4864290;28;101753;-90
2022/04/12 10:14:15;;;;;;;6.38;3.95;;;;;;;22.51;22.89;100627.09;4880401;28;97088;-91
2022/04/12 10:16:43;;;;;;;5.45;3.53;;;;;;;22.58;22.62;100665.78;4881208;28;97233;-90
2022/04/12 10:19:10;;;;;;;5.95;3.63;;;;;;;22.45;22.65;100662.34;4876692;28;97099;-92
2022/04/12 10:21:35;;;;;;;5.07;3.75;;;;;;;22.53;22.77;100666.13;4859524;28;100277;-91
2022/04/12 10:24:01;;;;;;;6.30;3.67;;;;;;;22.38;23.15;100665.50;4863950;28;102601;-91
2022/04/12 10:26:28;;;;;;;6.50;3.60;;;;;;;22.24;22.94;100630.97;4880657;28;96740;-91
2022/04/12 10:29:00;;;;;;;6.13;3.58;;;;;;;21.61;23.63;100617.09;4865574;28;97164;-91
2022/04/12 10:31:30;;;;;;;8.00;3.88;;;;;;;21.28;24.87;100657.78;4880538;28;101611;-90
2022/04/12 10:34:04;;;;;;;5.60;3.83;;;;;;;20.52;24.91;100658.78;4881186;28;102128;-90
2022/04/12 10:36:55;;;;;;;10.30;4.50;;;;;;;20.31;25.06;100655.81;4892812;28;96541;-90
2022/04/12 10:39:26;;;;;;;6.63;4.13;;;;;;;19.84;25.41;100651.94;4902963;28;96852;-93
2022/04/12 10:41:53;;;;;;;;;;;;;;;19.35;25.72;100644.50;4883970;28;101341;-90
2022/04/12 10:44:19;;;;;;;6.88;4.43;;;;;;;19.21;25.88;100651.56;4882302;28;98196;-92
2022/04/12 10:46:51;;;;;;;5.93;4.20;;;;;;;18.65;26.86;100655.16;4865491;28;96751;-90
2022/04/12 10:49:20;;;;;;;6.40;3.92;;;;;;;18.37;26.71;100632.09;4880407;28;96830;-88
2022/04/12 10:51:55;;;;;;;5.85;4.13;;;;;;;18.08;26.91;100642.69;4894534;28;98532;-80
2022/04/12 10:54:29;;;;;;;6.88;4.40;;;;;;;18.01;26.95;100647.50;4874757;28;101541;-82
2022/04/12 10:57:17;;;;;;;5.38;3.95;;;;;;;18.09;27.02;100639.06;4893768;28;96710;-80
2022/04/12 11:00:08;;;;;;;10.55;4.25;;;;;;;18.29;27.27;100636.06;4877481;28;96951;-80
2022/04/12 11:02:42;;;;;;;7.43;4.10;;;;;;;18.25;27.69;100612.44;4877259;28;101367;-81
2022/04/12 11:05:37;;;;;;;10.45;4.55;;;;;;;18.37;27.23;100627.63;4896325;28;98074;-80
2022/04/12 11:08:07;;;;;;;7.53;4.60;;;;;;;17.99;27.70;100624.66;4879850;28;96761;-81
2022/04/12 11:10:32;;;;;;;7.13;4.03;;;;;;;17.69;28.23;100630.81;4877427;28;97019;-80
2022/04/12 11:13:10;;;;;;;7.65;4.57;;;;;;;17.64;28.49;100624.91;4865968;28;101017;-84
2022/04/12 11:15:37;;;;;;;7.10;4.10;;;;;;;17.74;28.35;100618.09;4868863;28;101052;-81
2022/04/12 11:18:16;;;;;;;7.18;4.00;;;;;;;17.73;28.28;100618.19;4876961;28;96900;-81
2022/04/12 11:20:45;;;;;;;8.50;5.20;;;;;;;17.68;28.04;100620.25;4862003;28;97113;-81